sensor_id;sensor_type;location;lat;lon;timestamp;P1;durP1;ratioP1;P2;durP2;ratioP2
31262;SDS011;17892;52.080;9.006;2022-12-10T00:00:41;10.70;;;5.38;;
31262;SDS011;17892;52.080;9.006;2022-12-10T00:03:07;12.25;;;5.97;;
31262;SDS011;17892;52.080;9.006;2022-12-10T00:05:33;9.95;;;5.63;;
31262;SDS011;17892;52.080;9.006;2022-12-10T00:08:00;10.88;;;6.07;;
31262;SDS011;17892;52.080;9.006;2022-12-10T00:10:26;12.25;;;6.30;;
31262;SDS011;17892;52.080;9.006;2022-12-10T00:12:52;10.25;;;5.22;;
31262;SDS011;17892;52.080;9.006;2022-12-10T00:15:17;9.93;;;4.97;;
31262;SDS011;17892;52.080;9.006;2022-12-10T00:17:43;9.85;;;4.82;;
31262;SDS011;17892;52.080;9.006;2022-12-10T00:20:09;12.32;;;6.50;;
31262;SDS011;17892;52.080;9.006;2022-12-10T00:22:35;10.65;;;5.75;;
31262;SDS011;17892;52.080;9.006;2022-12-10T00:25:01;10.40;;;5.90;;
31262;SDS011;17892;52.080;9.006;2022-12-10T00:27:27;11.52;;;6.05;;
31262;SDS011;17892;52.080;9.006;2022-12-10T00:29:53;10.82;;;6.03;;
31262;SDS011;17892;52.080;9.006;2022-12-10T00:32:18;11.52;;;6.07;;
31262;SDS011;17892;52.080;9.006;2022-12-10T00:34:44;13.35;;;6.07;;
31262;SDS011;17892;52.080;9.006;2022-12-10T00:37:10;13.27;;;6.68;;
31262;SDS011;17892;52.080;9.006;2022-12-10T00:39:35;15.55;;;8.13;;
31262;SDS011;17892;52.080;9.006;2022-12-10T00:42:01;16.40;;;7.90;;
31262;SDS011;17892;52.080;9.006;2022-12-10T00:44:27;16.27;;;8.25;;
31262;SDS011;17892;52.080;9.006;2022-12-10T00:46:53;16.35;;;7.47;;
31262;SDS011;17892;52.080;9.006;2022-12-10T00:49:19;13.95;;;7.50;;
31262;SDS011;17892;52.080;9.006;2022-12-10T00:51:48;20.92;;;9.90;;
31262;SDS011;17892;52.080;9.006;2022-12-10T00:54:13;20.50;;;10.48;;
31262;SDS011;17892;52.080;9.006;2022-12-10T00:56:39;19.15;;;9.35;;
31262;SDS011;17892;52.080;9.006;2022-12-10T00:59:05;15.02;;;7.32;;
31262;SDS011;17892;52.080;9.006;2022-12-10T01:01:32;15.65;;;7.43;;
31262;SDS011;17892;52.080;9.006;2022-12-10T01:09:22;12.95;;;6.57;;
31262;SDS011;17892;52.080;9.006;2022-12-10T01:11:52;12.73;;;6.95;;
31262;SDS011;17892;52.080;9.006;2022-12-10T01:14:20;12.32;;;6.45;;
31262;SDS011;17892;52.080;9.006;2022-12-10T01:16:53;11.48;;;6.43;;
31262;SDS011;17892;52.080;9.006;2022-12-10T01:19:24;14.93;;;7.10;;
31262;SDS011;17892;52.080;9.006;2022-12-10T01:21:50;12.55;;;6.75;;
31262;SDS011;17892;52.080;9.006;2022-12-10T01:24:18;14.95;;;7.18;;
31262;SDS011;17892;52.080;9.006;2022-12-10T01:26:48;13.25;;;7.10;;
31262;SDS011;17892;52.080;9.006;2022-12-10T01:29:14;12.35;;;6.50;;
31262;SDS011;17892;52.080;9.006;2022-12-10T01:31:41;13.93;;;7.30;;
31262;SDS011;17892;52.080;9.006;2022-12-10T01:34:08;13.23;;;7.93;;
31262;SDS011;17892;52.080;9.006;2022-12-10T01:36:38;11.38;;;6.60;;
31262;SDS011;17892;52.080;9.006;2022-12-10T01:39:08;17.83;;;9.10;;
31262;SDS011;17892;52.080;9.006;2022-12-10T01:41:40;16.90;;;8.90;;
31262;SDS011;17892;52.080;9.006;2022-12-10T01:46:44;12.13;;;7.03;;
31262;SDS011;17892;52.080;9.006;2022-12-10T01:49:17;15.00;;;8.25;;
31262;SDS011;17892;52.080;9.006;2022-12-10T01:51:50;11.75;;;5.63;;
31262;SDS011;17892;52.080;9.006;2022-12-10T01:54:21;13.45;;;7.55;;
31262;SDS011;17892;52.080;9.006;2022-12-10T01:56:58;15.05;;;8.68;;
31262;SDS011;17892;52.080;9.006;2022-12-10T01:59:27;17.55;;;9.38;;
31262;SDS011;17892;52.080;9.006;2022-12-10T02:10:41;19.15;;;10.60;;
31262;SDS011;17892;52.080;9.006;2022-12-10T02:13:52;19.23;;;10.70;;
31262;SDS011;17892;52.080;9.006;2022-12-10T02:16:31;17.13;;;9.43;;
31262;SDS011;17892;52.080;9.006;2022-12-10T02:21:45;19.67;;;10.75;;
31262;SDS011;17892;52.080;9.006;2022-12-10T02:24:15;19.30;;;10.00;;
31262;SDS011;17892;52.080;9.006;2022-12-10T02:27:01;20.08;;;11.20;;
31262;SDS011;17892;52.080;9.006;2022-12-10T02:29:38;13.75;;;7.72;;
31262;SDS011;17892;52.080;9.006;2022-12-10T02:32:06;16.52;;;8.65;;
31262;SDS011;17892;52.080;9.006;2022-12-10T02:34:41;16.15;;;9.20;;
31262;SDS011;17892;52.080;9.006;2022-12-10T02:37:14;15.30;;;8.52;;
31262;SDS011;17892;52.080;9.006;2022-12-10T02:39:52;16.25;;;8.18;;
31262;SDS011;17892;52.080;9.006;2022-12-10T02:42:21;14.88;;;7.82;;
31262;SDS011;17892;52.080;9.006;2022-12-10T02:44:50;14.85;;;8.23;;
31262;SDS011;17892;52.080;9.006;2022-12-10T02:47:18;14.27;;;7.63;;
31262;SDS011;17892;52.080;9.006;2022-12-10T02:49:49;13.20;;;8.55;;
31262;SDS011;17892;52.080;9.006;2022-12-10T02:52:19;17.20;;;9.32;;
31262;SDS011;17892;52.080;9.006;2022-12-10T02:54:47;12.40;;;7.28;;
31262;SDS011;17892;52.080;9.006;2022-12-10T02:57:17;14.85;;;8.38;;
31262;SDS011;17892;52.080;9.006;2022-12-10T03:05:20;14.38;;;7.35;;
31262;SDS011;17892;52.080;9.006;2022-12-10T03:08:21;12.32;;;6.38;;
31262;SDS011;17892;52.080;9.006;2022-12-10T03:10:59;12.73;;;7.53;;
31262;SDS011;17892;52.080;9.006;2022-12-10T03:16:44;12.95;;;6.65;;
31262;SDS011;17892;52.080;9.006;2022-12-10T03:19:35;14.35;;;7.80;;
31262;SDS011;17892;52.080;9.006;2022-12-10T03:22:06;13.50;;;7.35;;
31262;SDS011;17892;52.080;9.006;2022-12-10T03:24:35;13.85;;;7.10;;
31262;SDS011;17892;52.080;9.006;2022-12-10T03:27:01;14.40;;;7.88;;
31262;SDS011;17892;52.080;9.006;2022-12-10T03:29:31;16.52;;;8.73;;
31262;SDS011;17892;52.080;9.006;2022-12-10T03:32:02;15.90;;;8.68;;
31262;SDS011;17892;52.080;9.006;2022-12-10T03:34:28;13.85;;;7.95;;
31262;SDS011;17892;52.080;9.006;2022-12-10T03:36:54;15.57;;;7.85;;
31262;SDS011;17892;52.080;9.006;2022-12-10T03:39:20;13.48;;;7.38;;
31262;SDS011;17892;52.080;9.006;2022-12-10T03:41:47;12.05;;;6.90;;
31262;SDS011;17892;52.080;9.006;2022-12-10T03:44:13;13.10;;;7.30;;
31262;SDS011;17892;52.080;9.006;2022-12-10T03:46:52;14.00;;;7.57;;
31262;SDS011;17892;52.080;9.006;2022-12-10T03:49:17;12.30;;;7.63;;
31262;SDS011;17892;52.080;9.006;2022-12-10T03:51:43;14.15;;;7.82;;
31262;SDS011;17892;52.080;9.006;2022-12-10T03:54:09;15.95;;;8.32;;
31262;SDS011;17892;52.080;9.006;2022-12-10T03:56:34;13.73;;;7.47;;
31262;SDS011;17892;52.080;9.006;2022-12-10T03:59:00;13.57;;;7.68;;
31262;SDS011;17892;52.080;9.006;2022-12-10T04:01:26;13.70;;;7.90;;
31262;SDS011;17892;52.080;9.006;2022-12-10T04:03:51;13.90;;;7.78;;
31262;SDS011;17892;52.080;9.006;2022-12-10T04:06:18;12.80;;;7.97;;
31262;SDS011;17892;52.080;9.006;2022-12-10T04:08:44;13.20;;;7.28;;
31262;SDS011;17892;52.080;9.006;2022-12-10T04:11:12;17.00;;;8.98;;
31262;SDS011;17892;52.080;9.006;2022-12-10T04:13:39;14.10;;;8.32;;
31262;SDS011;17892;52.080;9.006;2022-12-10T04:16:25;14.20;;;8.02;;
31262;SDS011;17892;52.080;9.006;2022-12-10T04:18:51;11.95;;;7.10;;
31262;SDS011;17892;52.080;9.006;2022-12-10T04:21:19;13.40;;;7.53;;
31262;SDS011;17892;52.080;9.006;2022-12-10T04:24:03;12.52;;;7.32;;
31262;SDS011;17892;52.080;9.006;2022-12-10T04:26:48;10.93;;;7.07;;
31262;SDS011;17892;52.080;9.006;2022-12-10T04:29:17;12.65;;;6.97;;
31262;SDS011;17892;52.080;9.006;2022-12-10T04:31:44;10.60;;;5.38;;
31262;SDS011;17892;52.080;9.006;2022-12-10T04:34:10;9.73;;;5.82;;
31262;SDS011;17892;52.080;9.006;2022-12-10T04:36:36;13.50;;;7.25;;
31262;SDS011;17892;52.080;9.006;2022-12-10T04:39:02;12.10;;;6.82;;
31262;SDS011;17892;52.080;9.006;2022-12-10T04:41:28;11.35;;;6.70;;
31262;SDS011;17892;52.080;9.006;2022-12-10T04:43:54;11.77;;;5.97;;
31262;SDS011;17892;52.080;9.006;2022-12-10T04:46:19;11.68;;;6.13;;
31262;SDS011;17892;52.080;9.006;2022-12-10T04:48:45;12.02;;;6.57;;
31262;SDS011;17892;52.080;9.006;2022-12-10T04:51:11;11.85;;;7.00;;
31262;SDS011;17892;52.080;9.006;2022-12-10T04:53:37;13.43;;;8.13;;
31262;SDS011;17892;52.080;9.006;2022-12-10T04:56:02;14.75;;;7.47;;
31262;SDS011;17892;52.080;9.006;2022-12-10T04:58:30;11.82;;;7.28;;
31262;SDS011;17892;52.080;9.006;2022-12-10T05:01:01;15.00;;;8.85;;
31262;SDS011;17892;52.080;9.006;2022-12-10T05:03:31;13.25;;;8.27;;
31262;SDS011;17892;52.080;9.006;2022-12-10T05:06:01;14.07;;;7.45;;
31262;SDS011;17892;52.080;9.006;2022-12-10T05:08:28;17.38;;;8.10;;
31262;SDS011;17892;52.080;9.006;2022-12-10T05:10:55;14.23;;;8.18;;
31262;SDS011;17892;52.080;9.006;2022-12-10T05:13:25;13.98;;;7.53;;
31262;SDS011;17892;52.080;9.006;2022-12-10T05:15:50;14.45;;;7.65;;
31262;SDS011;17892;52.080;9.006;2022-12-10T05:18:16;13.98;;;7.90;;
31262;SDS011;17892;52.080;9.006;2022-12-10T05:20:42;12.07;;;7.15;;
31262;SDS011;17892;52.080;9.006;2022-12-10T05:23:08;13.95;;;7.60;;
31262;SDS011;17892;52.080;9.006;2022-12-10T05:28:40;12.73;;;7.70;;
31262;SDS011;17892;52.080;9.006;2022-12-10T05:31:18;13.48;;;7.78;;
31262;SDS011;17892;52.080;9.006;2022-12-10T05:33:53;15.13;;;8.43;;
31262;SDS011;17892;52.080;9.006;2022-12-10T05:36:21;12.63;;;6.78;;
31262;SDS011;17892;52.080;9.006;2022-12-10T05:38:56;15.50;;;8.18;;
31262;SDS011;17892;52.080;9.006;2022-12-10T05:41:24;13.27;;;7.28;;
31262;SDS011;17892;52.080;9.006;2022-12-10T05:43:53;16.92;;;9.05;;
31262;SDS011;17892;52.080;9.006;2022-12-10T05:46:22;17.38;;;8.85;;
31262;SDS011;17892;52.080;9.006;2022-12-10T05:48:51;13.35;;;6.97;;
31262;SDS011;17892;52.080;9.006;2022-12-10T05:51:18;14.40;;;7.57;;
31262;SDS011;17892;52.080;9.006;2022-12-10T05:53:47;13.95;;;7.97;;
31262;SDS011;17892;52.080;9.006;2022-12-10T05:56:14;12.48;;;7.70;;
31262;SDS011;17892;52.080;9.006;2022-12-10T05:58:43;12.77;;;6.95;;
31262;SDS011;17892;52.080;9.006;2022-12-10T06:01:12;13.88;;;7.70;;
31262;SDS011;17892;52.080;9.006;2022-12-10T06:03:43;11.98;;;6.70;;
31262;SDS011;17892;52.080;9.006;2022-12-10T06:06:09;10.38;;;6.45;;
31262;SDS011;17892;52.080;9.006;2022-12-10T06:08:36;11.05;;;5.88;;
31262;SDS011;17892;52.080;9.006;2022-12-10T06:11:06;10.70;;;6.10;;
31262;SDS011;17892;52.080;9.006;2022-12-10T06:13:35;11.43;;;5.97;;
31262;SDS011;17892;52.080;9.006;2022-12-10T06:16:06;12.63;;;6.55;;
31262;SDS011;17892;52.080;9.006;2022-12-10T06:18:34;11.30;;;6.50;;
31262;SDS011;17892;52.080;9.006;2022-12-10T06:21:09;13.52;;;7.70;;
31262;SDS011;17892;52.080;9.006;2022-12-10T06:23:38;11.40;;;6.60;;
31262;SDS011;17892;52.080;9.006;2022-12-10T06:26:08;15.13;;;8.27;;
31262;SDS011;17892;52.080;9.006;2022-12-10T06:28:37;11.75;;;6.47;;
31262;SDS011;17892;52.080;9.006;2022-12-10T06:31:04;13.10;;;6.68;;
31262;SDS011;17892;52.080;9.006;2022-12-10T06:33:30;12.50;;;6.45;;
31262;SDS011;17892;52.080;9.006;2022-12-10T06:35:56;13.25;;;7.22;;
31262;SDS011;17892;52.080;9.006;2022-12-10T06:38:22;15.07;;;8.77;;
31262;SDS011;17892;52.080;9.006;2022-12-10T06:40:48;15.77;;;8.80;;
31262;SDS011;17892;52.080;9.006;2022-12-10T06:43:14;13.57;;;7.13;;
31262;SDS011;17892;52.080;9.006;2022-12-10T06:45:40;11.63;;;6.30;;
31262;SDS011;17892;52.080;9.006;2022-12-10T06:48:06;16.85;;;7.97;;
31262;SDS011;17892;52.080;9.006;2022-12-10T06:50:33;15.85;;;8.25;;
31262;SDS011;17892;52.080;9.006;2022-12-10T06:52:59;15.43;;;7.63;;
31262;SDS011;17892;52.080;9.006;2022-12-10T06:55:25;16.48;;;8.48;;
31262;SDS011;17892;52.080;9.006;2022-12-10T06:57:51;17.02;;;8.68;;
31262;SDS011;17892;52.080;9.006;2022-12-10T07:00:18;18.17;;;9.15;;
31262;SDS011;17892;52.080;9.006;2022-12-10T07:02:45;20.23;;;9.27;;
31262;SDS011;17892;52.080;9.006;2022-12-10T07:05:11;18.02;;;8.90;;
31262;SDS011;17892;52.080;9.006;2022-12-10T07:07:37;16.30;;;8.13;;
31262;SDS011;17892;52.080;9.006;2022-12-10T07:10:03;18.65;;;8.82;;
31262;SDS011;17892;52.080;9.006;2022-12-10T07:12:29;17.85;;;8.63;;
31262;SDS011;17892;52.080;9.006;2022-12-10T07:14:55;18.25;;;9.48;;
31262;SDS011;17892;52.080;9.006;2022-12-10T07:17:21;19.45;;;8.65;;
31262;SDS011;17892;52.080;9.006;2022-12-10T07:19:47;19.13;;;9.95;;
31262;SDS011;17892;52.080;9.006;2022-12-10T07:22:12;17.25;;;8.88;;
31262;SDS011;17892;52.080;9.006;2022-12-10T07:24:38;17.70;;;8.48;;
31262;SDS011;17892;52.080;9.006;2022-12-10T07:27:04;18.85;;;8.48;;
31262;SDS011;17892;52.080;9.006;2022-12-10T07:29:31;18.60;;;9.23;;
31262;SDS011;17892;52.080;9.006;2022-12-10T07:31:57;21.02;;;9.82;;
31262;SDS011;17892;52.080;9.006;2022-12-10T07:34:22;17.38;;;9.00;;
31262;SDS011;17892;52.080;9.006;2022-12-10T07:36:48;15.48;;;8.20;;
31262;SDS011;17892;52.080;9.006;2022-12-10T07:39:14;15.48;;;7.82;;
31262;SDS011;17892;52.080;9.006;2022-12-10T07:41:48;16.65;;;8.10;;
31262;SDS011;17892;52.080;9.006;2022-12-10T07:44:17;17.25;;;8.85;;
31262;SDS011;17892;52.080;9.006;2022-12-10T07:46:48;16.27;;;7.70;;
31262;SDS011;17892;52.080;9.006;2022-12-10T07:49:16;20.13;;;9.30;;
31262;SDS011;17892;52.080;9.006;2022-12-10T07:51:46;18.45;;;9.30;;
31262;SDS011;17892;52.080;9.006;2022-12-10T07:54:13;18.27;;;9.40;;
31262;SDS011;17892;52.080;9.006;2022-12-10T07:56:40;18.73;;;8.75;;
31262;SDS011;17892;52.080;9.006;2022-12-10T07:59:06;16.63;;;8.38;;
31262;SDS011;17892;52.080;9.006;2022-12-10T08:01:32;18.38;;;8.48;;
31262;SDS011;17892;52.080;9.006;2022-12-10T08:03:58;14.85;;;7.07;;
31262;SDS011;17892;52.080;9.006;2022-12-10T08:06:24;15.75;;;7.63;;
31262;SDS011;17892;52.080;9.006;2022-12-10T08:08:52;16.20;;;7.80;;
31262;SDS011;17892;52.080;9.006;2022-12-10T08:11:20;16.90;;;7.55;;
31262;SDS011;17892;52.080;9.006;2022-12-10T08:13:47;16.48;;;7.63;;
31262;SDS011;17892;52.080;9.006;2022-12-10T08:18:41;17.75;;;8.23;;
31262;SDS011;17892;52.080;9.006;2022-12-10T08:21:15;14.88;;;7.70;;
31262;SDS011;17892;52.080;9.006;2022-12-10T08:23:44;17.30;;;7.15;;
31262;SDS011;17892;52.080;9.006;2022-12-10T08:26:12;16.17;;;7.63;;
31262;SDS011;17892;52.080;9.006;2022-12-10T08:28:41;15.48;;;7.28;;
31262;SDS011;17892;52.080;9.006;2022-12-10T08:31:07;14.43;;;7.13;;
31262;SDS011;17892;52.080;9.006;2022-12-10T08:33:36;15.82;;;7.20;;
31262;SDS011;17892;52.080;9.006;2022-12-10T08:36:03;17.30;;;7.63;;
31262;SDS011;17892;52.080;9.006;2022-12-10T08:38:31;16.60;;;7.22;;
31262;SDS011;17892;52.080;9.006;2022-12-10T08:40:57;19.88;;;8.60;;
31262;SDS011;17892;52.080;9.006;2022-12-10T08:43:23;18.88;;;8.20;;
31262;SDS011;17892;52.080;9.006;2022-12-10T08:45:49;16.02;;;8.63;;
31262;SDS011;17892;52.080;9.006;2022-12-10T08:48:15;14.13;;;6.68;;
31262;SDS011;17892;52.080;9.006;2022-12-10T08:50:41;15.70;;;7.50;;
31262;SDS011;17892;52.080;9.006;2022-12-10T08:53:06;12.30;;;6.43;;
31262;SDS011;17892;52.080;9.006;2022-12-10T08:55:32;15.70;;;7.80;;
31262;SDS011;17892;52.080;9.006;2022-12-10T08:57:59;15.43;;;6.90;;
31262;SDS011;17892;52.080;9.006;2022-12-10T09:00:25;16.27;;;7.45;;
31262;SDS011;17892;52.080;9.006;2022-12-10T09:02:51;14.32;;;6.45;;
31262;SDS011;17892;52.080;9.006;2022-12-10T09:05:17;13.25;;;6.20;;
31262;SDS011;17892;52.080;9.006;2022-12-10T09:07:43;12.13;;;6.00;;
31262;SDS011;17892;52.080;9.006;2022-12-10T09:10:09;12.70;;;5.78;;
31262;SDS011;17892;52.080;9.006;2022-12-10T09:12:38;13.25;;;6.38;;
31262;SDS011;17892;52.080;9.006;2022-12-10T09:15:05;10.40;;;5.25;;
31262;SDS011;17892;52.080;9.006;2022-12-10T09:17:34;12.32;;;6.13;;
31262;SDS011;17892;52.080;9.006;2022-12-10T09:20:00;9.05;;;4.45;;
31262;SDS011;17892;52.080;9.006;2022-12-10T09:22:27;14.70;;;5.82;;
31262;SDS011;17892;52.080;9.006;2022-12-10T09:24:54;8.32;;;3.78;;
31262;SDS011;17892;52.080;9.006;2022-12-10T09:27:19;6.93;;;3.25;;
31262;SDS011;17892;52.080;9.006;2022-12-10T09:29:45;6.07;;;3.10;;
31262;SDS011;17892;52.080;9.006;2022-12-10T09:32:11;6.35;;;3.00;;
31262;SDS011;17892;52.080;9.006;2022-12-10T09:34:37;4.80;;;2.30;;
31262;SDS011;17892;52.080;9.006;2022-12-10T09:37:02;5.40;;;2.38;;
31262;SDS011;17892;52.080;9.006;2022-12-10T09:39:28;6.82;;;3.33;;
31262;SDS011;17892;52.080;9.006;2022-12-10T09:42:04;5.55;;;2.88;;
31262;SDS011;17892;52.080;9.006;2022-12-10T09:44:52;6.78;;;3.35;;
31262;SDS011;17892;52.080;9.006;2022-12-10T09:47:30;5.38;;;2.63;;
31262;SDS011;17892;52.080;9.006;2022-12-10T09:52:39;5.20;;;2.60;;
31262;SDS011;17892;52.080;9.006;2022-12-10T09:55:19;5.50;;;2.28;;
31262;SDS011;17892;52.080;9.006;2022-12-10T09:58:01;5.22;;;2.60;;
31262;SDS011;17892;52.080;9.006;2022-12-10T10:00:36;5.35;;;2.47;;
31262;SDS011;17892;52.080;9.006;2022-12-10T10:03:10;5.15;;;2.55;;
31262;SDS011;17892;52.080;9.006;2022-12-10T10:08:14;6.28;;;2.90;;
31262;SDS011;17892;52.080;9.006;2022-12-10T10:11:05;5.32;;;2.53;;
31262;SDS011;17892;52.080;9.006;2022-12-10T10:13:52;4.65;;;2.20;;
31262;SDS011;17892;52.080;9.006;2022-12-10T10:16:25;5.85;;;2.80;;
31262;SDS011;17892;52.080;9.006;2022-12-10T10:18:58;4.32;;;2.15;;
31262;SDS011;17892;52.080;9.006;2022-12-10T10:21:31;5.88;;;2.92;;
31262;SDS011;17892;52.080;9.006;2022-12-10T10:24:07;4.97;;;2.53;;
31262;SDS011;17892;52.080;9.006;2022-12-10T10:26:45;5.63;;;2.88;;
31262;SDS011;17892;52.080;9.006;2022-12-10T10:29:12;4.97;;;2.72;;
31262;SDS011;17892;52.080;9.006;2022-12-10T10:31:43;5.53;;;2.45;;
31262;SDS011;17892;52.080;9.006;2022-12-10T10:34:16;5.35;;;2.58;;
31262;SDS011;17892;52.080;9.006;2022-12-10T10:36:46;5.53;;;2.70;;
31262;SDS011;17892;52.080;9.006;2022-12-10T10:39:29;5.47;;;2.67;;
31262;SDS011;17892;52.080;9.006;2022-12-10T10:41:58;5.57;;;2.92;;
31262;SDS011;17892;52.080;9.006;2022-12-10T10:44:26;6.10;;;3.08;;
31262;SDS011;17892;52.080;9.006;2022-12-10T10:47:00;6.15;;;3.28;;
31262;SDS011;17892;52.080;9.006;2022-12-10T10:52:14;5.82;;;3.13;;
31262;SDS011;17892;52.080;9.006;2022-12-10T10:54:43;6.47;;;3.03;;
31262;SDS011;17892;52.080;9.006;2022-12-10T11:02:47;6.90;;;3.47;;
31262;SDS011;17892;52.080;9.006;2022-12-10T11:08:03;6.15;;;3.38;;
31262;SDS011;17892;52.080;9.006;2022-12-10T11:10:32;7.53;;;3.65;;
31262;SDS011;17892;52.080;9.006;2022-12-10T11:20:57;5.70;;;3.17;;
31262;SDS011;17892;52.080;9.006;2022-12-10T11:23:28;6.28;;;2.95;;
31262;SDS011;17892;52.080;9.006;2022-12-10T11:28:55;6.32;;;3.13;;
31262;SDS011;17892;52.080;9.006;2022-12-10T11:31:56;5.63;;;2.53;;
31262;SDS011;17892;52.080;9.006;2022-12-10T11:49:35;5.07;;;2.63;;
31262;SDS011;17892;52.080;9.006;2022-12-10T11:54:58;8.15;;;3.50;;
31262;SDS011;17892;52.080;9.006;2022-12-10T11:57:41;6.60;;;3.45;;
31262;SDS011;17892;52.080;9.006;2022-12-10T12:06:04;6.32;;;3.47;;
31262;SDS011;17892;52.080;9.006;2022-12-10T12:15:08;6.63;;;3.13;;
31262;SDS011;17892;52.080;9.006;2022-12-10T12:17:46;6.20;;;3.15;;
31262;SDS011;17892;52.080;9.006;2022-12-10T12:20:18;5.78;;;2.97;;
31262;SDS011;17892;52.080;9.006;2022-12-10T12:26:27;5.63;;;3.00;;
31262;SDS011;17892;52.080;9.006;2022-12-10T12:31:37;6.93;;;3.40;;
31262;SDS011;17892;52.080;9.006;2022-12-10T12:36:47;7.32;;;3.63;;
31262;SDS011;17892;52.080;9.006;2022-12-10T12:41:52;5.85;;;3.40;;
31262;SDS011;17892;52.080;9.006;2022-12-10T12:44:29;6.80;;;3.42;;
31262;SDS011;17892;52.080;9.006;2022-12-10T12:47:16;6.82;;;3.20;;
31262;SDS011;17892;52.080;9.006;2022-12-10T12:50:43;6.32;;;3.22;;
31262;SDS011;17892;52.080;9.006;2022-12-10T12:53:16;5.47;;;3.45;;
31262;SDS011;17892;52.080;9.006;2022-12-10T13:05:23;7.43;;;3.40;;
31262;SDS011;17892;52.080;9.006;2022-12-10T13:13:39;6.70;;;3.33;;
31262;SDS011;17892;52.080;9.006;2022-12-10T13:19:28;6.38;;;3.20;;
31262;SDS011;17892;52.080;9.006;2022-12-10T13:22:11;5.63;;;3.08;;
31262;SDS011;17892;52.080;9.006;2022-12-10T13:25:09;6.93;;;3.60;;
31262;SDS011;17892;52.080;9.006;2022-12-10T13:27:36;7.30;;;3.83;;
31262;SDS011;17892;52.080;9.006;2022-12-10T13:37:35;8.50;;;4.75;;
31262;SDS011;17892;52.080;9.006;2022-12-10T13:49:16;7.15;;;3.90;;
31262;SDS011;17892;52.080;9.006;2022-12-10T14:08:38;5.53;;;3.25;;
31262;SDS011;17892;52.080;9.006;2022-12-10T14:11:14;6.50;;;3.38;;
31262;SDS011;17892;52.080;9.006;2022-12-10T14:16:18;7.05;;;3.42;;
31262;SDS011;17892;52.080;9.006;2022-12-10T14:18:51;6.55;;;3.53;;
31262;SDS011;17892;52.080;9.006;2022-12-10T14:21:24;6.88;;;3.22;;
31262;SDS011;17892;52.080;9.006;2022-12-10T14:23:51;6.25;;;3.60;;
31262;SDS011;17892;52.080;9.006;2022-12-10T14:26:18;6.47;;;3.28;;
31262;SDS011;17892;52.080;9.006;2022-12-10T14:31:35;6.22;;;3.53;;
31262;SDS011;17892;52.080;9.006;2022-12-10T14:34:07;6.60;;;3.53;;
31262;SDS011;17892;52.080;9.006;2022-12-10T14:36:43;5.60;;;3.28;;
31262;SDS011;17892;52.080;9.006;2022-12-10T14:39:16;7.13;;;3.60;;
31262;SDS011;17892;52.080;9.006;2022-12-10T14:41:44;6.78;;;3.80;;
31262;SDS011;17892;52.080;9.006;2022-12-10T14:44:17;6.72;;;4.00;;
31262;SDS011;17892;52.080;9.006;2022-12-10T14:46:44;6.82;;;3.63;;
31262;SDS011;17892;52.080;9.006;2022-12-10T14:49:31;7.22;;;3.97;;
31262;SDS011;17892;52.080;9.006;2022-12-10T14:51:57;7.20;;;4.00;;
31262;SDS011;17892;52.080;9.006;2022-12-10T14:54:27;7.13;;;3.97;;
31262;SDS011;17892;52.080;9.006;2022-12-10T14:56:56;7.50;;;3.95;;
31262;SDS011;17892;52.080;9.006;2022-12-10T14:59:29;6.72;;;3.97;;
31262;SDS011;17892;52.080;9.006;2022-12-10T15:02:29;7.50;;;3.90;;
31262;SDS011;17892;52.080;9.006;2022-12-10T15:04:59;7.18;;;4.65;;
31262;SDS011;17892;52.080;9.006;2022-12-10T15:07:27;7.70;;;4.70;;
31262;SDS011;17892;52.080;9.006;2022-12-10T15:09:59;7.18;;;4.10;;
31262;SDS011;17892;52.080;9.006;2022-12-10T15:12:32;7.07;;;4.13;;
31262;SDS011;17892;52.080;9.006;2022-12-10T15:18:09;7.05;;;4.22;;
31262;SDS011;17892;52.080;9.006;2022-12-10T15:28:44;9.32;;;5.40;;
31262;SDS011;17892;52.080;9.006;2022-12-10T15:31:22;8.73;;;5.22;;
31262;SDS011;17892;52.080;9.006;2022-12-10T15:41:50;8.57;;;4.93;;
31262;SDS011;17892;52.080;9.006;2022-12-10T15:46:48;8.40;;;5.05;;
31262;SDS011;17892;52.080;9.006;2022-12-10T15:49:16;9.90;;;5.18;;
31262;SDS011;17892;52.080;9.006;2022-12-10T15:51:42;9.75;;;4.80;;
31262;SDS011;17892;52.080;9.006;2022-12-10T15:54:14;7.72;;;4.15;;
31262;SDS011;17892;52.080;9.006;2022-12-10T15:59:51;8.45;;;4.60;;
31262;SDS011;17892;52.080;9.006;2022-12-10T16:05:13;8.57;;;4.57;;
31262;SDS011;17892;52.080;9.006;2022-12-10T16:07:46;8.63;;;4.88;;
31262;SDS011;17892;52.080;9.006;2022-12-10T16:10:14;8.20;;;4.97;;
31262;SDS011;17892;52.080;9.006;2022-12-10T16:12:42;10.75;;;5.75;;
31262;SDS011;17892;52.080;9.006;2022-12-10T16:15:18;9.93;;;6.05;;
31262;SDS011;17892;52.080;9.006;2022-12-10T16:17:46;9.48;;;6.00;;
31262;SDS011;17892;52.080;9.006;2022-12-10T16:20:20;10.40;;;5.88;;
31262;SDS011;17892;52.080;9.006;2022-12-10T16:22:52;9.52;;;5.45;;
31262;SDS011;17892;52.080;9.006;2022-12-10T16:25:20;9.52;;;5.30;;
31262;SDS011;17892;52.080;9.006;2022-12-10T16:27:47;8.32;;;5.70;;
31262;SDS011;17892;52.080;9.006;2022-12-10T16:30:24;9.13;;;5.13;;
31262;SDS011;17892;52.080;9.006;2022-12-10T16:33:03;8.25;;;4.93;;
31262;SDS011;17892;52.080;9.006;2022-12-10T16:35:29;9.43;;;5.05;;
31262;SDS011;17892;52.080;9.006;2022-12-10T16:37:56;9.65;;;5.45;;
31262;SDS011;17892;52.080;9.006;2022-12-10T16:40:24;9.50;;;5.30;;
31262;SDS011;17892;52.080;9.006;2022-12-10T16:42:51;10.63;;;6.03;;
31262;SDS011;17892;52.080;9.006;2022-12-10T16:47:45;10.13;;;5.57;;
31262;SDS011;17892;52.080;9.006;2022-12-10T16:50:12;9.95;;;5.95;;
31262;SDS011;17892;52.080;9.006;2022-12-10T16:52:40;10.75;;;6.35;;
31262;SDS011;17892;52.080;9.006;2022-12-10T16:55:06;11.07;;;6.45;;
31262;SDS011;17892;52.080;9.006;2022-12-10T16:57:37;10.20;;;6.45;;
31262;SDS011;17892;52.080;9.006;2022-12-10T17:00:05;9.85;;;6.18;;
31262;SDS011;17892;52.080;9.006;2022-12-10T17:02:32;12.88;;;6.13;;
31262;SDS011;17892;52.080;9.006;2022-12-10T17:04:58;11.40;;;6.70;;
31262;SDS011;17892;52.080;9.006;2022-12-10T17:07:23;10.10;;;6.20;;
31262;SDS011;17892;52.080;9.006;2022-12-10T17:09:49;11.88;;;6.50;;
31262;SDS011;17892;52.080;9.006;2022-12-10T17:12:15;8.75;;;5.80;;
31262;SDS011;17892;52.080;9.006;2022-12-10T17:14:42;11.38;;;5.88;;
31262;SDS011;17892;52.080;9.006;2022-12-10T17:17:15;9.25;;;5.32;;
31262;SDS011;17892;52.080;9.006;2022-12-10T17:19:41;7.75;;;5.07;;
31262;SDS011;17892;52.080;9.006;2022-12-10T17:22:08;8.52;;;4.95;;
31262;SDS011;17892;52.080;9.006;2022-12-10T17:24:35;9.40;;;5.68;;
31262;SDS011;17892;52.080;9.006;2022-12-10T17:27:03;10.65;;;6.22;;
31262;SDS011;17892;52.080;9.006;2022-12-10T17:29:41;11.95;;;6.45;;
31262;SDS011;17892;52.080;9.006;2022-12-10T17:32:18;9.43;;;5.45;;
31262;SDS011;17892;52.080;9.006;2022-12-10T17:34:46;8.90;;;5.00;;
31262;SDS011;17892;52.080;9.006;2022-12-10T17:37:13;8.82;;;5.18;;
31262;SDS011;17892;52.080;9.006;2022-12-10T17:39:42;8.35;;;4.82;;
31262;SDS011;17892;52.080;9.006;2022-12-10T17:42:09;8.55;;;4.95;;
31262;SDS011;17892;52.080;9.006;2022-12-10T17:44:35;9.02;;;4.93;;
31262;SDS011;17892;52.080;9.006;2022-12-10T17:47:11;8.45;;;4.75;;
31262;SDS011;17892;52.080;9.006;2022-12-10T17:49:45;7.95;;;5.00;;
31262;SDS011;17892;52.080;9.006;2022-12-10T17:52:10;9.43;;;5.22;;
31262;SDS011;17892;52.080;9.006;2022-12-10T17:54:36;8.10;;;4.93;;
31262;SDS011;17892;52.080;9.006;2022-12-10T17:57:02;9.05;;;5.05;;
31262;SDS011;17892;52.080;9.006;2022-12-10T17:59:35;8.93;;;5.20;;
31262;SDS011;17892;52.080;9.006;2022-12-10T18:02:00;9.68;;;4.97;;
31262;SDS011;17892;52.080;9.006;2022-12-10T18:04:26;8.95;;;5.50;;